Time;durP1;ratioP1;P1;durP2;ratioP2;P2;SDS_P1;SDS_P2;PMS_P1;PMS_P2;Temp;Humidity;BMP_temperature;BMP_pressure;BME280_temperature;BME280_humidity;BME280_pressure;Samples;Min_cycle;Max_cycle;Signal;HPM_P1;HPM_P2
2020/12/04 00:02:09;;;;;;;13.48;10.75;;;5.50;46.70;;;;;;4995073;28;20191;-87
2020/12/04 00:04:53;;;;;;;11.70;9.50;;;5.20;45.70;;;;;;4995779;28;20198;-89
2020/12/04 00:07:19;;;;;;;13.13;9.50;;;5.10;45.30;;;;;;4994720;28;20654;-90
2020/12/04 00:09:44;;;;;;;11.27;9.43;;;5.60;45.60;;;;;;4995273;28;20255;-89
2020/12/04 00:12:16;;;;;;;10.50;9.50;;;5.60;45.50;;;;;;4994755;28;20172;-88
2020/12/04 00:14:42;;;;;;;8.82;7.93;;;5.70;45.50;;;;;;4994924;28;20172;-89
2020/12/04 00:17:37;;;;;;;9.60;8.53;;;5.60;45.60;;;;;;4994924;28;20160;-87
2020/12/04 00:20:06;;;;;;;9.80;7.50;;;5.50;46.00;;;;;;4994922;28;20670;-88
2020/12/04 00:22:32;;;;;;;9.15;7.63;;;5.20;45.80;;;;;;4994939;28;20164;-88
2020/12/04 00:24:57;;;;;;;9.40;8.50;;;6.00;46.00;;;;;;4996387;28;20701;-88
2020/12/04 00:27:23;;;;;;;7.93;7.13;;;6.10;45.40;;;;;;4995345;28;20422;-88
2020/12/04 00:29:49;;;;;;;9.03;8.10;;;5.30;44.30;;;;;;4994912;28;20169;-88
2020/12/04 00:32:15;;;;;;;9.15;7.55;;;5.90;44.80;;;;;;4994646;28;20167;-87
2020/12/04 00:34:42;;;;;;;9.50;8.47;;;5.80;44.40;;;;;;4994673;28;20534;-88
2020/12/04 00:37:08;;;;;;;9.35;7.85;;;5.50;44.00;;;;;;4996013;28;20171;-87
2020/12/04 00:39:34;;;;;;;11.00;8.70;;;5.90;44.90;;;;;;4994755;28;20255;-88
2020/12/04 00:42:20;;;;;;;10.23;9.20;;;5.40;44.50;;;;;;4994799;28;20841;-88
2020/12/04 00:44:45;;;;;;;13.20;9.60;;;6.00;45.30;;;;;;4994891;28;20164;-89
2020/12/04 00:47:11;;;;;;;12.00;8.17;;;6.00;44.70;;;;;;4994293;28;20196;-89
2020/12/04 00:50:14;;;;;;;11.10;9.30;;;5.80;45.30;;;;;;4994330;28;20638;-89
2020/12/04 00:52:40;;;;;;;9.32;8.32;;;5.90;45.80;;;;;;4994401;28;20164;-89
2020/12/04 00:55:24;;;;;;;12.40;10.00;;;5.50;44.80;;;;;;4994442;28;20171;-89
2020/12/04 00:57:50;;;;;;;13.00;10.77;;;5.80;45.70;;;;;;4994438;28;20179;-89
2020/12/04 01:00:24;;;;;;;14.53;11.03;;;5.60;45.20;;;;;;4994435;28;20557;-89
2020/12/04 01:02:50;;;;;;;13.38;11.98;;;6.00;45.60;;;;;;4994591;28;20199;-89
2020/12/04 01:05:18;;;;;;;16.43;12.87;;;5.90;45.30;;;;;;4994660;28;20560;-89
2020/12/04 01:07:43;;;;;;;13.23;11.80;;;6.20;45.40;;;;;;4994378;28;20171;-89
2020/12/04 01:10:10;;;;;;;13.97;11.87;;;5.20;44.50;;;;;;4994571;28;20164;-89
2020/12/04 01:12:35;;;;;;;13.90;12.45;;;6.20;45.20;;;;;;4994297;28;20211;-89
2020/12/04 01:15:01;;;;;;;16.00;12.10;;;5.60;44.60;;;;;;4994938;28;20157;-90
2020/12/04 01:17:45;;;;;;;15.03;13.50;;;5.70;44.80;;;;;;4994664;28;20604;-89
2020/12/04 01:20:11;;;;;;;17.83;13.48;;;5.00;45.20;;;;;;4995428;28;20164;-89
2020/12/04 01:22:37;;;;;;;13.23;9.38;;;5.50;45.40;;;;;;4994484;28;20167;-89
2020/12/04 01:25:03;;;;;;;9.13;8.17;;;4.90;45.30;;;;;;4994521;28;20231;-89
2020/12/04 01:27:28;;;;;;;9.93;8.93;;;5.20;47.10;;;;;;4978047;28;20627;-89
2020/12/04 01:30:16;;;;;;;10.10;8.63;;;4.70;46.70;;;;;;4993442;28;20427;-88
2020/12/04 01:32:42;;;;;;;9.20;8.35;;;5.40;47.40;;;;;;4997124;28;20631;-88
2020/12/04 01:35:40;;;;;;;7.93;7.13;;;4.80;45.90;;;;;;4998507;28;20288;-88
2020/12/04 01:38:09;;;;;;;11.23;7.95;;;5.50;46.80;;;;;;4981309;28;20168;-89
2020/12/04 01:40:35;;;;;;;9.95;8.63;;;5.40;46.00;;;;;;4999056;28;20172;-89
2020/12/04 01:43:41;;;;;;;11.13;9.87;;;5.90;46.10;;;;;;4997139;28;20179;-88
2020/12/04 01:46:07;;;;;;;9.35;7.15;;;5.80;46.40;;;;;;4981107;28;20208;-88
2020/12/04 01:48:46;;;;;;;7.60;6.57;;;5.50;46.30;;;;;;4997204;28;20238;-88
2020/12/04 01:51:12;;;;;;;8.10;7.30;;;5.50;46.60;;;;;;4998311;28;20412;-88
2020/12/04 01:53:38;;;;;;;7.78;6.75;;;5.80;47.00;;;;;;4997712;28;20167;-89
2020/12/04 01:56:15;;;;;;;11.27;9.32;;;5.60;46.00;;;;;;4997445;28;20638;-88
2020/12/04 01:58:41;;;;;;;12.38;8.63;;;5.00;46.00;;;;;;4997516;28;20223;-89
2020/12/04 02:01:11;;;;;;;12.75;10.35;;;5.10;46.20;;;;;;4997110;28;20188;-88
2020/12/04 02:03:55;;;;;;;9.88;8.98;;;5.50;46.30;;;;;;4998175;28;20156;-88
2020/12/04 02:06:27;;;;;;;9.70;8.68;;;5.70;46.80;;;;;;4997154;28;20698;-89
2020/12/04 02:09:36;;;;;;;10.85;8.75;;;5.20;46.00;;;;;;4997140;28;20686;-89
2020/12/04 02:12:05;;;;;;;10.68;9.48;;;5.70;46.80;;;;;;4981175;28;20199;-88
2020/12/04 02:14:32;;;;;;;9.88;8.88;;;6.00;46.60;;;;;;4997353;28;20203;-88
2020/12/04 02:17:06;;;;;;;9.15;8.25;;;5.00;46.10;;;;;;4996690;28;20179;-89
2020/12/04 02:19:40;;;;;;;10.95;8.68;;;5.00;45.90;;;;;;4997424;28;20536;-89
2020/12/04 02:22:06;;;;;;;12.02;9.70;;;5.40;46.80;;;;;;4996705;28;20168;-89
2020/12/04 02:25:09;;;;;;;11.10;9.70;;;5.20;46.10;;;;;;4996967;28;20165;-88
2020/12/04 02:27:48;;;;;;;9.77;8.65;;;5.80;47.00;;;;;;5000237;28;20544;-93
2020/12/04 02:30:50;;;;;;;10.43;9.27;;;6.00;46.30;;;;;;4999980;28;20170;-93
2020/12/04 02:33:17;;;;;;;11.93;10.60;;;5.70;47.00;;;;;;4997265;28;20187;-88
2020/12/04 02:35:42;;;;;;;10.25;9.05;;;5.10;45.90;;;;;;5016460;28;20614;-88
2020/12/04 02:38:08;;;;;;;9.20;7.77;;;5.00;46.00;;;;;;5000645;28;20226;-89
2020/12/04 02:41:10;;;;;;;8.40;7.50;;;5.50;46.80;;;;;;5001588;28;20525;-93
2020/12/04 02:43:36;;;;;;;8.52;7.72;;;5.20;47.60;;;;;;5000892;28;20258;-93
2020/12/04 02:46:03;;;;;;;7.05;6.35;;;5.10;48.70;;;;;;5001741;28;20662;-93
2020/12/04 02:48:47;;;;;;;8.63;7.40;;;5.10;49.10;;;;;;5018749;28;20607;-93
2020/12/04 02:51:13;;;;;;;8.55;6.75;;;4.70;50.20;;;;;;5000754;28;20499;-88
2020/12/04 02:53:38;;;;;;;8.30;6.90;;;4.80;51.70;;;;;;5002810;28;20262;-93
2020/12/04 02:59:26;;;;;;;6.72;6.03;;;4.40;51.90;;;;;;5020247;28;20158;-94
2020/12/04 03:05:14;;;;;;;6.45;5.80;;;4.60;50.90;;;;;;5020866;28;20268;-94
2020/12/04 03:07:51;;;;;;;7.93;6.30;;;5.30;50.40;;;;;;5001456;28;20191;-94
2020/12/04 03:12:44;;;;;;;7.60;6.55;;;5.00;49.30;;;;;;5017707;28;20227;-93
2020/12/04 03:15:10;;;;;;;8.50;6.33;;;5.20;48.10;;;;;;5017711;28;20168;-89
2020/12/04 03:17:36;;;;;;;6.53;5.93;;;5.40;48.00;;;;;;5017659;28;20525;-89
2020/12/04 03:20:03;;;;;;;6.83;6.10;;;5.70;47.70;;;;;;5017264;28;20893;-94
2020/12/04 03:23:19;;;;;;;7.13;6.30;;;5.60;48.00;;;;;;5018135;28;20174;-94
2020/12/04 03:25:44;;;;;;;7.80;7.10;;;5.60;47.90;;;;;;5017716;28;20198;-93
2020/12/04 03:28:10;;;;;;;10.90;8.00;;;5.40;47.00;;;;;;5016823;28;20160;-93
2020/12/04 03:30:50;;;;;;;8.60;7.70;;;4.80;47.40;;;;;;5017584;28;20167;-90
2020/12/04 03:33:16;;;;;;;9.10;8.15;;;4.40;48.40;;;;;;5015887;28;20259;-94
2020/12/04 03:36:26;;;;;;;8.20;7.40;;;4.50;48.80;;;;;;5016177;28;20646;-94
2020/12/04 03:38:52;;;;;;;8.48;7.68;;;5.00;50.30;;;;;;5017521;28;20198;-94
2020/12/04 03:41:17;;;;;;;10.93;8.90;;;4.90;49.30;;;;;;5018418;28;20163;-94
2020/12/04 03:44:31;;;;;;;11.20;9.93;;;5.00;49.50;;;;;;5019353;28;20168;-94
2020/12/04 03:46:58;;;;;;;9.93;8.95;;;4.70;50.50;;;;;;5018460;28;20191;-93
2020/12/04 03:49:24;;;;;;;10.38;7.70;;;4.60;50.70;;;;;;5017474;28;20529;-94
2020/12/04 03:52:24;;;;;;;9.80;8.75;;;4.30;49.80;;;;;;5018374;28;20571;-94
2020/12/04 03:54:49;;;;;;;10.00;8.48;;;5.00;49.60;;;;;;5018440;28;20164;-92
2020/12/04 03:57:15;;;;;;;8.67;7.57;;;5.20;49.20;;;;;;5016967;28;20195;-95
2020/12/04 04:03:03;;;;;;;10.35;9.35;;;5.30;48.80;;;;;;5019307;28;20230;-93
2020/12/04 04:08:50;;;;;;;10.98;9.32;;;5.30;48.30;;;;;;5019002;28;20225;-92
2020/12/04 04:14:45;;;;;;;12.18;10.52;;;5.50;47.40;;;;;;5018531;28;20206;-93
2020/12/04 04:17:10;;;;;;;14.73;13.33;;;5.60;46.40;;;;;;5018445;28;20180;-93
2020/12/04 04:20:09;;;;;;;12.53;11.30;;;5.30;46.00;;;;;;5018486;28;20512;-93
2020/12/04 04:22:35;;;;;;;13.05;11.75;;;5.50;46.90;;;;;;5017495;28;20163;-92
2020/12/04 04:25:01;;;;;;;15.23;12.67;;;5.40;46.00;;;;;;5017724;28;20693;-93
2020/12/04 04:28:11;;;;;;;16.50;13.67;;;5.70;45.80;;;;;;5018083;28;20222;-92
2020/12/04 04:30:37;;;;;;;14.80;12.93;;;6.00;46.70;;;;;;5017286;28;20164;-92
2020/12/04 04:33:03;;;;;;;16.48;12.35;;;6.40;46.40;;;;;;5017073;28;20584;-92
2020/12/04 04:35:55;;;;;;;15.37;12.00;;;5.30;45.20;;;;;;5016925;28;20183;-93
2020/12/04 04:38:21;;;;;;;12.43;11.13;;;5.70;46.20;;;;;;5017750;28;20611;-92
2020/12/04 04:40:53;;;;;;;15.63;13.47;;;5.80;45.40;;;;;;5018096;28;20170;-92
2020/12/04 04:44:12;;;;;;;13.43;11.93;;;5.40;45.00;;;;;;5016976;28;20395;-93
2020/12/04 04:46:54;;;;;;;12.10;10.90;;;6.00;46.70;;;;;;5016641;28;20258;-93
2020/12/04 04:55:32;;;;;;;14.45;12.30;;;5.80;46.20;;;;;;5017723;28;20512;-87
2020/12/04 04:58:19;;;;;;;8.87;7.97;;;5.70;46.40;;;;;;5014362;28;20168;-88
2020/12/04 05:00:45;;;;;;;9.30;7.80;;;5.60;48.40;;;;;;5014254;28;20163;-88
2020/12/04 05:03:10;;;;;;;9.73;8.53;;;5.40;47.80;;;;;;5013812;28;20164;-87
2020/12/04 05:05:46;;;;;;;9.80;8.53;;;5.40;47.70;;;;;;5016014;28;20188;-87
2020/12/04 05:08:15;;;;;;;10.77;8.90;;;5.40;48.80;;;;;;5018920;28;20689;-92
2020/12/04 05:10:43;;;;;;;11.40;10.13;;;4.60;48.00;;;;;;5019864;28;20164;-91
2020/12/04 05:13:09;;;;;;;8.85;7.95;;;4.40;49.30;;;;;;5019998;28;20274;-94
2020/12/04 05:16:12;;;;;;;8.30;6.93;;;4.70;50.00;;;;;;5020175;28;20175;-94
2020/12/04 05:18:38;;;;;;;8.10;6.85;;;5.00;50.70;;;;;;5021225;28;20633;-93
2020/12/04 05:21:04;;;;;;;8.95;7.10;;;4.80;48.60;;;;;;5020225;28;20160;-93
2020/12/04 05:26:52;;;;;;;9.20;7.88;;;5.30;49.00;;;;;;5023096;28;20191;-92
2020/12/04 05:32:40;;;;;;;12.25;11.00;;;5.60;48.30;;;;;;5027459;28;20178;-92
2020/12/04 05:38:28;;;;;;;12.05;9.82;;;6.10;48.10;;;;;;5026257;28;20183;-92
2020/12/04 05:44:17;;;;;;;14.60;10.95;;;5.90;47.80;;;;;;5028762;28;20162;-93
2020/12/04 05:50:10;;;;;;;12.90;11.73;;;5.80;47.10;;;;;;5029642;28;20159;-92
2020/12/04 05:56:51;;;;;;;12.23;10.23;;;6.00;46.90;;;;;;5022567;28;20163;-94
2020/12/04 05:59:24;;;;;;;12.77;10.27;;;6.30;46.60;;;;;;5019898;28;20217;-93
2020/12/04 06:01:50;;;;;;;13.93;12.45;;;6.10;47.30;;;;;;5003279;28;20258;-93
2020/12/04 06:04:18;;;;;;;12.35;10.70;;;6.10;46.40;;;;;;5019618;28;20156;-93
2020/12/04 06:06:45;;;;;;;12.18;10.75;;;5.90;46.60;;;;;;5002264;28;20190;-93
2020/12/04 06:09:12;;;;;;;14.77;10.73;;;6.00;46.70;;;;;;5018388;28;20160;-93
2020/12/04 06:11:42;;;;;;;14.07;11.88;;;6.20;46.80;;;;;;5001903;28;20173;-93
2020/12/04 06:14:26;;;;;;;13.40;12.07;;;6.20;47.30;;;;;;5019253;28;20589;-94
2020/12/04 06:17:28;;;;;;;13.18;11.20;;;5.50;46.30;;;;;;4988938;28;20168;-94
2020/12/04 06:19:54;;;;;;;14.18;10.93;;;6.10;47.10;;;;;;5002371;28;20238;-91
2020/12/04 06:23:09;;;;;;;10.40;9.30;;;6.40;46.50;;;;;;5002053;28;20169;-90
2020/12/04 06:29:41;;;;;;;12.45;11.15;;;6.10;46.60;;;;;;4972244;28;20182;-94
2020/12/04 06:33:01;;;;;;;10.02;9.00;;;5.80;47.80;;;;;;4999381;28;20164;-93
2020/12/04 06:35:43;;;;;;;11.35;9.65;;;5.80;48.50;;;;;;4999147;28;20172;-92
2020/12/04 06:38:36;;;;;;;17.52;14.20;;;5.90;47.80;;;;;;4999231;28;20174;-93
2020/12/04 06:44:27;;;;;;;15.32;12.43;;;6.10;47.70;;;;;;5000558;28;20151;-92
2020/12/04 06:53:37;;;;;;;15.95;13.30;;;6.30;47.10;;;;;;4998564;28;20183;-93
2020/12/04 06:56:17;;;;;;;15.47;12.93;;;6.30;46.20;;;;;;4998376;28;20176;-92
2020/12/04 06:58:43;;;;;;;14.00;12.23;;;6.10;46.00;;;;;;4999676;28;20180;-95
2020/12/04 07:01:09;;;;;;;9.87;8.37;;;5.70;45.80;;;;;;4998482;28;20207;-93
2020/12/04 07:03:45;;;;;;;9.10;8.23;;;5.70;45.60;;;;;;4999708;28;20589;-84
2020/12/04 07:06:11;;;;;;;8.95;7.85;;;6.30;46.30;;;;;;4999941;28;20590;-95
2020/12/04 07:12:01;;;;;;;8.70;7.38;;;6.00;48.80;;;;;;5000235;28;20957;-92
2020/12/04 07:14:34;;;;;;;7.93;7.13;;;5.70;48.40;;;;;;4982396;28;20314;-93
2020/12/04 07:17:00;;;;;;;8.23;7.40;;;6.70;48.40;;;;;;5012200;28;20207;-92
2020/12/04 07:19:33;;;;;;;9.73;7.50;;;6.70;47.70;;;;;;5016219;28;20175;-93
2020/12/04 07:21:58;;;;;;;13.35;10.95;;;6.10;47.10;;;;;;5006710;28;20635;-93
2020/12/04 07:24:24;;;;;;;17.33;15.53;;;6.60;47.70;;;;;;4985822;28;20176;-93
2020/12/04 07:27:07;;;;;;;14.10;11.70;;;6.80;47.60;;;;;;5009699;28;20445;-93
2020/12/04 07:29:37;;;;;;;15.52;13.18;;;6.10;47.00;;;;;;5014629;28;20167;-94
2020/12/04 07:32:42;;;;;;;17.45;11.57;;;6.10;46.80;;;;;;5002576;28;20291;-93
2020/12/04 07:35:10;;;;;;;12.30;11.10;;;6.30;46.60;;;;;;5019198;28;20159;-93
2020/12/04 07:37:36;;;;;;;13.27;12.00;;;6.30;46.20;;;;;;5002723;28;20168;-93
2020/12/04 07:40:02;;;;;;;15.27;12.90;;;6.90;46.90;;;;;;4999426;28;20435;-93
2020/12/04 07:42:27;;;;;;;17.10;11.77;;;6.00;47.80;;;;;;5004751;28;20179;-93
2020/12/04 07:45:21;;;;;;;9.63;8.57;;;6.00;48.30;;;;;;5000486;28;20255;-92
2020/12/04 07:47:47;;;;;;;11.57;9.77;;;6.00;47.80;;;;;;5013333;28;20414;-93
2020/12/04 07:50:33;;;;;;;12.45;9.40;;;6.20;47.20;;;;;;5003364;28;20419;-93
2020/12/04 07:52:59;;;;;;;10.23;9.23;;;6.30;47.00;;;;;;4983155;28;20168;-86
2020/12/04 07:55:26;;;;;;;10.07;9.07;;;6.20;45.80;;;;;;4998421;28;20174;-91
2020/12/04 07:58:14;;;;;;;9.80;8.80;;;6.80;45.60;;;;;;4997801;28;20416;-93
2020/12/04 08:00:42;;;;;;;15.52;13.65;;;6.70;46.00;;;;;;4997146;28;20491;-93
2020/12/04 08:03:13;;;;;;;15.50;13.63;;;6.80;45.40;;;;;;4981973;28;20396;-93
2020/12/04 08:06:31;;;;;;;14.80;13.23;;;6.50;45.20;;;;;;4996426;28;20428;-93
2020/12/04 08:09:10;;;;;;;16.92;15.27;;;6.70;46.00;;;;;;4997330;28;20211;-92
2020/12/04 08:11:56;;;;;;;12.05;10.60;;;6.80;45.60;;;;;;4991398;28;20436;-93
2020/12/04 08:14:27;;;;;;;12.10;11.00;;;6.70;45.40;;;;;;5003393;28;20440;-92
2020/12/04 08:17:31;;;;;;;13.50;12.20;;;7.00;45.60;;;;;;5002261;28;20835;-93
2020/12/04 08:19:59;;;;;;;12.63;11.43;;;7.20;45.30;;;;;;5016408;28;20546;-92
2020/12/04 08:22:34;;;;;;;11.38;10.27;;;7.10;44.00;;;;;;5016319;28;20171;-91
2020/12/04 08:25:16;;;;;;;12.60;11.40;;;7.30;44.10;;;;;;4998624;28;20446;-92
2020/12/04 08:27:44;;;;;;;12.38;11.10;;;7.50;44.10;;;;;;5014714;28;20415;-93
2020/12/04 08:34:02;;;;;;;11.95;10.75;;;7.50;43.80;;;;;;5016155;28;20406;-92
2020/12/04 08:36:27;;;;;;;12.65;11.13;;;7.60;43.90;;;;;;5015387;28;20175;-93
2020/12/04 08:39:12;;;;;;;8.63;7.83;;;7.20;43.20;;;;;;5015546;28;20163;-92
2020/12/04 08:41:38;;;;;;;9.07;7.65;;;7.80;44.10;;;;;;5015072;28;20171;-93
2020/12/04 08:44:27;;;;;;;9.43;7.63;;;7.20;43.50;;;;;;5015566;28;20593;-93
2020/12/04 08:46:53;;;;;;;8.88;7.38;;;7.50;43.70;;;;;;5014841;28;20195;-90
2020/12/04 08:49:25;;;;;;;12.77;9.77;;;7.60;43.50;;;;;;5014971;28;20164;-90
2020/12/04 08:51:51;;;;;;;18.70;11.40;;;7.60;42.70;;;;;;4998168;28;20262;-88
2020/12/04 08:54:29;;;;;;;13.65;10.35;;;7.60;42.90;;;;;;4995006;28;20207;-88
2020/12/04 08:56:57;;;;;;;9.80;8.80;;;7.60;42.30;;;;;;5011248;28;20211;-88
2020/12/04 08:59:31;;;;;;;10.18;8.93;;;7.90;42.30;;;;;;4994361;28;20175;-87
2020/12/04 09:01:57;;;;;;;11.60;9.23;;;7.90;42.30;;;;;;4994729;28;20200;-87
2020/12/04 09:04:38;;;;;;;11.17;9.20;;;8.00;42.50;;;;;;4979175;28;20168;-88
2020/12/04 09:07:03;;;;;;;8.45;7.50;;;7.40;41.40;;;;;;4994921;28;20242;-87
2020/12/04 09:09:36;;;;;;;9.00;8.10;;;8.00;41.80;;;;;;4996851;28;20172;-92
2020/12/04 09:12:02;;;;;;;11.27;8.73;;;7.90;41.50;;;;;;4996883;28;20161;-91
2020/12/04 09:14:28;;;;;;;6.93;6.32;;;8.10;41.60;;;;;;4996569;28;20216;-91
2020/12/04 09:17:16;;;;;;;6.77;6.07;;;7.80;41.90;;;;;;4996413;28;20172;-91
2020/12/04 09:19:42;;;;;;;6.85;4.30;;;7.80;42.90;;;;;;4996162;28;20165;-90
2020/12/04 09:25:32;;;;;;;6.20;5.60;;;8.20;42.20;;;;;;4998306;28;20450;-92
2020/12/04 09:27:58;;;;;;;9.25;7.93;;;7.90;41.40;;;;;;5015625;28;20226;-92
2020/12/04 09:30:36;;;;;;;9.90;7.85;;;7.90;42.80;;;;;;5015804;28;20160;-91
2020/12/04 09:33:02;;;;;;;9.32;8.43;;;8.00;43.20;;;;;;5015979;28;20633;-92
2020/12/04 09:35:58;;;;;;;10.53;8.90;;;8.00;42.80;;;;;;5015382;28;20192;-91
2020/12/04 09:38:23;;;;;;;9.48;8.50;;;7.90;42.80;;;;;;5015195;28;20225;-91
2020/12/04 09:40:49;;;;;;;10.67;8.07;;;7.40;42.30;;;;;;5015199;28;20614;-92
2020/12/04 09:43:15;;;;;;;13.13;9.40;;;8.30;43.10;;;;;;5014656;28;20544;-90
2020/12/04 09:46:16;;;;;;;10.27;8.50;;;7.90;42.70;;;;;;5014266;28;20214;-91
2020/12/04 09:48:41;;;;;;;12.02;8.63;;;8.00;43.00;;;;;;5013991;28;20160;-91
2020/12/04 09:51:10;;;;;;;7.97;7.03;;;7.90;42.70;;;;;;5014739;28;20251;-91
2020/12/04 09:53:36;;;;;;;9.75;6.50;;;7.80;43.20;;;;;;5018427;28;20175;-91
2020/12/04 09:56:02;;;;;;;7.50;6.73;;;7.70;43.20;;;;;;5017738;28;20163;-91
2020/12/04 09:58:28;;;;;;;7.45;6.65;;;7.60;42.70;;;;;;5018172;28;20219;-91
2020/12/04 10:01:17;;;;;;;8.50;7.03;;;7.70;42.80;;;;;;5018478;28;20160;-92
2020/12/04 10:03:43;;;;;;;10.32;7.28;;;7.80;43.80;;;;;;5018796;28;20167;-92
2020/12/04 10:06:09;;;;;;;7.25;6.25;;;7.50;42.70;;;;;;5018392;28;20215;-92
2020/12/04 10:12:19;;;;;;;8.43;7.50;;;7.90;43.10;;;;;;5019148;28;20163;-92
2020/12/04 10:14:52;;;;;;;7.75;6.90;;;7.90;42.90;;;;;;5017638;28;20558;-92
2020/12/04 10:17:17;;;;;;;8.25;7.53;;;8.00;42.60;;;;;;5018620;28;20171;-91
2020/12/04 10:20:15;;;;;;;8.97;7.93;;;7.70;42.50;;;;;;5017958;28;20175;-92
2020/12/04 10:22:41;;;;;;;11.70;8.93;;;8.20;42.90;;;;;;5017100;28;20164;-91
2020/12/04 10:25:20;;;;;;;11.43;8.77;;;8.10;42.20;;;;;;5017384;28;20186;-91
2020/12/04 10:27:45;;;;;;;9.25;8.25;;;8.40;41.60;;;;;;5017082;28;20194;-92
2020/12/04 10:30:54;;;;;;;8.97;8.07;;;8.20;41.00;;;;;;5016357;28;20258;-91
2020/12/04 10:33:20;;;;;;;9.88;8.98;;;8.40;41.40;;;;;;5017981;28;20163;-92
2020/12/04 10:36:29;;;;;;;8.83;7.70;;;8.50;40.90;;;;;;5018010;28;20647;-91
2020/12/04 10:38:59;;;;;;;9.65;8.02;;;8.50;41.50;;;;;;5017483;28;20753;-90
2020/12/04 10:41:34;;;;;;;9.65;8.65;;;8.60;41.30;;;;;;5016860;28;20536;-90
2020/12/04 10:44:00;;;;;;;8.02;6.90;;;8.10;42.90;;;;;;5000476;28;20262;-91
2020/12/04 10:46:26;;;;;;;11.38;9.55;;;7.70;43.20;;;;;;5017058;28;20226;-92
2020/12/04 10:48:53;;;;;;;12.93;11.40;;;7.60;43.20;;;;;;5017303;28;20183;-91
2020/12/04 10:51:23;;;;;;;12.98;11.57;;;7.20;44.00;;;;;;5018064;28;20419;-92
2020/12/04 10:53:51;;;;;;;11.57;10.38;;;7.30;45.50;;;;;;5016899;28;20536;-92
2020/12/04 10:56:19;;;;;;;12.63;11.05;;;7.20;45.00;;;;;;5001308;28;20210;-92
2020/12/04 10:58:53;;;;;;;12.02;10.82;;;7.10;44.00;;;;;;5000022;28;20778;-92
2020/12/04 11:06:55;;;;;;;11.60;10.48;;;8.00;42.60;;;;;;5001635;28;20216;-92
2020/12/04 11:09:22;;;;;;;14.50;11.43;;;8.10;42.30;;;;;;5016141;28;20577;-92
2020/12/04 11:11:48;;;;;;;12.57;11.38;;;8.70;42.40;;;;;;5000088;28;20661;-92
2020/12/04 11:14:14;;;;;;;11.43;10.33;;;8.60;41.50;;;;;;5016596;28;20216;-91
2020/12/04 11:16:54;;;;;;;13.07;10.70;;;8.60;41.30;;;;;;5016400;28;20541;-92
2020/12/04 11:19:19;;;;;;;15.35;11.25;;;8.70;40.50;;;;;;5016794;28;20576;-92
2020/12/04 11:22:33;;;;;;;14.87;10.83;;;9.00;40.60;;;;;;5016187;28;20168;-91
2020/12/04 11:25:01;;;;;;;11.80;10.60;;;8.70;40.60;;;;;;5016102;28;20191;-91
2020/12/04 11:27:26;;;;;;;12.85;11.55;;;8.70;39.60;;;;;;4999474;28;20196;-91
2020/12/04 11:29:52;;;;;;;13.83;12.43;;;8.50;40.60;;;;;;5000273;28;20167;-91
2020/12/04 11:32:25;;;;;;;12.50;11.30;;;8.50;40.00;;;;;;5016453;28;20575;-93
2020/12/04 11:34:50;;;;;;;13.05;11.75;;;8.70;40.40;;;;;;5015329;28;20410;-93
2020/12/04 11:37:17;;;;;;;13.27;11.87;;;8.70;40.20;;;;;;5011373;28;20690;-93
2020/12/04 11:39:44;;;;;;;12.25;10.82;;;9.00;40.00;;;;;;4996814;28;20204;-93
2020/12/04 11:42:45;;;;;;;14.82;12.90;;;9.00;40.00;;;;;;5004241;28;20430;-93
2020/12/04 11:45:14;;;;;;;14.27;12.05;;;8.90;39.50;;;;;;4999403;28;20566;-92
2020/12/04 11:48:04;;;;;;;13.70;12.20;;;8.80;39.60;;;;;;5000093;28;20325;-92
2020/12/04 11:50:30;;;;;;;12.82;11.40;;;8.80;39.60;;;;;;5016569;28;20172;-93
2020/12/04 11:52:57;;;;;;;15.73;12.67;;;8.90;39.10;;;;;;5016895;28;20167;-92
2020/12/04 11:55:22;;;;;;;13.65;12.25;;;8.90;39.10;;;;;;5015874;28;20178;-92
2020/12/04 12:01:46;;;;;;;12.90;11.70;;;9.00;39.60;;;;;;5018608;28;20195;-91
2020/12/04 12:04:14;;;;;;;13.32;12.10;;;8.80;39.50;;;;;;5001104;28;20304;-91
2020/12/04 12:07:19;;;;;;;11.15;9.98;;;9.10;39.50;;;;;;4999749;28;20196;-92
2020/12/04 12:09:47;;;;;;;11.32;10.32;;;9.10;39.50;;;;;;5016716;28;20156;-92
2020/12/04 12:12:54;;;;;;;11.93;10.65;;;9.40;39.20;;;;;;5016027;28;20635;-92
2020/12/04 12:15:19;;;;;;;12.32;10.02;;;9.30;39.20;;;;;;5016532;28;20219;-92
2020/12/04 12:18:14;;;;;;;12.70;11.23;;;8.80;38.40;;;;;;5016681;28;20231;-91
2020/12/04 12:20:39;;;;;;;14.07;12.63;;;9.20;38.90;;;;;;4999224;28;20266;-90
2020/12/04 12:23:07;;;;;;;13.30;11.90;;;9.40;38.60;;;;;;5016363;28;20202;-90
2020/12/04 12:25:33;;;;;;;12.25;11.05;;;9.20;38.20;;;;;;5003386;28;20210;-92
2020/12/04 12:28:11;;;;;;;11.50;10.40;;;9.40;38.40;;;;;;4997056;28;20251;-90
2020/12/04 12:30:37;;;;;;;15.73;12.65;;;9.70;38.50;;;;;;5000154;28;20168;-92
2020/12/04 12:33:40;;;;;;;17.97;14.63;;;9.40;38.30;;;;;;4997085;28;20413;-90
2020/12/04 12:36:06;;;;;;;17.17;14.43;;;9.30;38.60;;;;;;4996141;28;20168;-90
2020/12/04 12:38:31;;;;;;;15.80;13.93;;;9.30;38.50;;;;;;4980098;28;20174;-90
2020/12/04 12:41:44;;;;;;;15.97;14.30;;;9.70;38.80;;;;;;4996090;28;20187;-89
2020/12/04 12:44:10;;;;;;;15.93;13.40;;;9.50;38.40;;;;;;4995325;28;20176;-91
2020/12/04 12:46:49;;;;;;;16.60;14.90;;;9.50;38.20;;;;;;4994980;28;20223;-90
2020/12/04 12:49:15;;;;;;;17.65;15.85;;;9.50;38.10;;;;;;4995720;28;20688;-93
2020/12/04 12:51:47;;;;;;;17.90;14.90;;;9.50;38.20;;;;;;4995783;28;20195;-92
2020/12/04 12:54:13;;;;;;;18.67;14.38;;;9.50;38.20;;;;;;4996126;28;20173;-89
2020/12/04 13:00:11;;;;;;;15.85;14.25;;;9.40;37.90;;;;;;4997938;28;20164;-92
2020/12/04 13:02:36;;;;;;;16.20;14.45;;;9.50;38.00;;;;;;4996384;28;20313;-93
2020/12/04 13:05:33;;;;;;;14.90;13.50;;;9.70;38.10;;;;;;4996713;28;20188;-92
2020/12/04 13:08:04;;;;;;;17.13;13.65;;;9.70;38.10;;;;;;5012196;28;20206;-91
2020/12/04 13:11:00;;;;;;;16.10;14.00;;;9.70;38.20;;;;;;5009211;28;20164;-92
2020/12/04 13:13:25;;;;;;;13.10;11.80;;;9.40;38.00;;;;;;4991530;28;20173;-90
2020/12/04 13:15:51;;;;;;;16.80;14.23;;;9.70;38.40;;;;;;4984502;28;20546;-93
2020/12/04 13:18:17;;;;;;;18.37;12.93;;;9.70;38.20;;;;;;4996889;28;20260;-92
2020/12/04 13:20:43;;;;;;;14.70;12.00;;;9.70;38.40;;;;;;4997905;28;20192;-90
2020/12/04 13:23:22;;;;;;;16.20;14.50;;;9.60;38.20;;;;;;5016017;28;20414;-89
2020/12/04 13:25:48;;;;;;;14.25;12.75;;;9.40;37.80;;;;;;5015205;28;20999;-91
2020/12/04 13:28:20;;;;;;;15.52;13.05;;;9.40;38.10;;;;;;5010100;28;20176;-92
2020/12/04 13:30:46;;;;;;;16.25;13.85;;;9.40;38.30;;;;;;5013919;28;20183;-90
2020/12/04 13:33:23;;;;;;;15.83;13.70;;;9.30;38.10;;;;;;5001226;28;20168;-90
2020/12/04 13:35:49;;;;;;;15.40;13.07;;;9.50;38.40;;;;;;4999634;28;20223;-89
2020/12/04 13:38:16;;;;;;;15.20;11.97;;;9.30;38.10;;;;;;5000159;28;20172;-90
2020/12/04 13:40:41;;;;;;;16.67;13.77;;;9.50;38.50;;;;;;5000151;28;20657;-90
2020/12/04 13:43:09;;;;;;;15.03;13.50;;;9.60;38.70;;;;;;5034093;28;20258;-90
2020/12/04 13:45:35;;;;;;;14.40;12.98;;;9.70;38.80;;;;;;5019273;28;20207;-90
2020/12/04 13:48:33;;;;;;;15.23;13.67;;;9.60;38.40;;;;;;5019544;28;20662;-90
2020/12/04 13:50:59;;;;;;;17.75;13.57;;;9.50;38.40;;;;;;5019236;28;20535;-89
2020/12/04 13:56:46;;;;;;;17.65;12.82;;;9.40;38.60;;;;;;5019341;28;20178;-90
2020/12/04 13:59:20;;;;;;;16.87;14.53;;;9.40;38.20;;;;;;5002461;28;20678;-90
2020/12/04 14:01:45;;;;;;;14.90;12.45;;;9.40;38.50;;;;;;5019157;28;20630;-89
2020/12/04 14:04:12;;;;;;;15.13;13.00;;;9.30;38.30;;;;;;5018370;28;20251;-90
2020/12/04 14:06:38;;;;;;;15.60;13.88;;;9.30;38.60;;;;;;5002157;28;20214;-90
2020/12/04 14:09:38;;;;;;;15.57;12.60;;;9.50;38.50;;;;;;5002184;28;20194;-91
2020/12/04 14:12:16;;;;;;;13.98;12.60;;;9.50;38.90;;;;;;5018476;28;20619;-89
2020/12/04 14:14:42;;;;;;;14.90;13.30;;;9.60;38.70;;;;;;5018199;28;20250;-90
2020/12/04 14:17:08;;;;;;;16.30;12.40;;;9.30;38.30;;;;;;5018446;28;20176;-90
2020/12/04 14:19:54;;;;;;;12.93;11.55;;;9.20;39.30;;;;;;5018506;28;20411;-90
2020/12/04 14:22:19;;;;;;;14.10;10.95;;;9.50;39.50;;;;;;5002031;28;20168;-89
2020/12/04 14:25:05;;;;;;;18.10;14.80;;;9.40;39.20;;;;;;5017825;28;20172;-90
2020/12/04 14:27:31;;;;;;;18.90;14.25;;;9.30;38.80;;;;;;5017418;28;20681;-91
2020/12/04 14:30:15;;;;;;;17.10;14.43;;;9.30;38.90;;;;;;5017343;28;20175;-89
2020/12/04 14:32:41;;;;;;;14.77;13.18;;;9.30;39.90;;;;;;5017727;28;20199;-90
2020/12/04 14:35:07;;;;;;;19.37;16.77;;;9.20;40.80;;;;;;5017704;28;20514;-89
2020/12/04 14:37:33;;;;;;;17.08;15.15;;;8.70;40.60;;;;;;5000763;28;20263;-89
2020/12/04 14:42:52;;;;;;;16.95;13.90;;;8.50;40.10;;;;;;5019107;28;20382;-89
2020/12/04 14:45:25;;;;;;;18.83;13.80;;;8.30;40.50;;;;;;5017557;28;20172;-89
2020/12/04 14:47:51;;;;;;;18.67;15.43;;;8.50;40.70;;;;;;5001016;28;20186;-89
2020/12/04 14:50:33;;;;;;;23.73;17.88;;;8.70;41.40;;;;;;4992945;28;20534;-90
2020/12/04 14:52:59;;;;;;;22.27;16.45;;;8.60;41.60;;;;;;4997162;28;20165;-89
2020/12/04 14:55:24;;;;;;;16.83;14.67;;;8.30;42.20;;;;;;4997258;28;20215;-89